Strona główna
METAR-TAF:

METAR-TAF

Lotnisko :

Port lotniczy Parnawa

Parnawa, Estonia

Szerokość geograficzna: 58-25-09N, Długość geograficzna: 024-28-22E, wysokość: 14 m

Aktualna obserwacja pogody

Raport powstał 5 godziny i 7 minut temu, godzina 12:50 UTC
Wiatr 9 kt od południowo-południowy zachód, zmienny między południowo-południowy wschód i południowy zachód
Temperatura 16°C
Wilgotność 82%
Ciśnienie 1014 hPa
Widzialność 10 km lub więcej
Zachmurzenie całkowite na wysokości 3000 ft

METAR: EEPU 181250Z 20009KT 150V230 9999 OVC030 16/13 Q1014

czas: 20:57 (17:57 UTC)


TAF: brakujący

Obserwacja i prognoza pogody dla ponad 4000 lotnisk (raport METAR i TAF).

Dostępne stacje oznaczono żółtymi i czerwonymi punktami na mapie.

Najedź kursorem aby zobaczyć nazwę stacji.

Kliknij aby zobaczyć obserwacje i prognozy pogody.

Aby zmienić mapę: kliknij na zielony przycisk z czarnym krzyżykiem, aby powiększyć; na zielony przycisk z myślnikiem, aby pomniejszyć; na zielone strzałki, aby przejść do map sąsiednich.


METAR-TAF: